メインページ
METAR-TAF:

METAR-TAF

空港 :

アムステルダム, オランダ

アムステルダム・スキポール空港

緯度: 52-18N, 経度: 004-46E, 海抜: -4m

現時点の気象観測

当レポートは33分前の05:25(UTC)に作成
西の風 8kt
気温 15°C
湿度 82%
気圧 1019 hPa
視程10km以上
高度2700ftの雲はほとんどない

METAR: EHAM 200525Z 26008KT 9999 FEW027 15/12 Q1019 NOSIG

時間: 07:58 (05:58 UTC)

予報

当レポートは1時間28分前の04:30(UTC)に作成
予報は20日の 06時(UTC)から 21日の 12時(UTC)まで有効
西/南西の風 9kt
視程10km以上
高度3000ftの雲は散在している
20日の 06時(UTC)から 20日の 09時(UTC)まで徐々に
西の風 14kt
20日の 16時(UTC)から 20日の 19時(UTC)まで徐々に
南西の風 5kt
視程10km以上
1,500メートル以下は雲なし、積乱雲なし

TAF: EHAM 200430Z 2006/2112 24009KT 9999 SCT030 BECMG 2006/2009 27014KT BECMG 2016/2019 22005KT CAVOK

4,000以上の空港の気象観測と天気予報(METAR報とTAF報)

利用可能な観測所は地図上に黄色い丸と赤い丸で示す。

丸の上にカーソルを重ねると観測所名を参照できる。

次にクリックすると気象観測と天気予報を参照できる。

マップの切り替え:黒色「×」印の緑ボタンをクリックして拡大、「-」印の緑ボタンをクリックして縮小、緑色の三角印をクリックして隣りの地図に切り替え


METAR-TAF: